CYAZ/YAZ METAR and TAF weather

Enter ICAO airport designator
Station Type Date Time Source
CYAZ METAR 2020/11/25 23:00 UTC NOAA

CYAZ 252300Z 32004KT 15SM FEW011 FEW022TCU BKN035 BKN090 08/07 A3013 RMK SF1TCU2SC3AC2 SF TR SLP206


Station Type Date Time Source
CYAZ Decoded METAR 2020/11/25 23:00 UTC NOAA

Tofino Airport, Canada (CYAZ) 49-05N 125-46W
Nov 25, 2020 - 06:00 PM EST / 2020.11.25 2300 UTC
Wind: from the NW (320 degrees) at 5 MPH (4 KT):0
Visibility: 15 mile(s):0
Sky conditions: mostly cloudy
Weather: Towering cumulus clouds observed
Temperature: 46 F (8 C)
Dew Point: 44 F (7 C)
Relative Humidity: 93%
Pressure (altimeter): 30.13 in. Hg (1020 hPa)
ob: CYAZ 252300Z 32004KT 15SM FEW011 FEW022TCU BKN035 BKN090 08/07 A3013 RMK SF1TCU2SC3AC2 SF TR SLP206
cycle: 23

Station Type Date Time Source
CYAZ TAF 2020/11/25 19:00 UTC NOAA

TAF CYAZ 251838Z 2519/2601 08005KT P6SM BKN025 BKN050
TEMPO 2519/2601 P6SM -SHRA FEW008 BKN020
BECMG 2520/2522 30007KT
RMK NXT FCST WILL BE ISSUED AT 261645Z

Example: see airport list